Time;durP1;ratioP1;P1;durP2;ratioP2;P2;SDS_P1;SDS_P2;PMS_P1;PMS_P2;Temp;Humidity;BMP_temperature;BMP_pressure;BME280_temperature;BME280_humidity;BME280_pressure;Samples;Min_cycle;Max_cycle;Signal;HPM_P1;HPM_P2
2022/03/05 00:00:38;;;;;;;8.55;4.70;;;;;;;2.02;86.48;101502.72;5286871;28;20524;-80
2022/03/05 00:03:10;;;;;;;7.32;4.13;;;;;;;2.11;85.56;101502.84;5286197;28;20027;-82
2022/03/05 00:05:41;;;;;;;8.40;4.03;;;;;;;2.21;85.67;101512.44;5285961;28;20019;-80
2022/03/05 00:08:11;;;;;;;10.70;4.85;;;;;;;2.10;88.41;101506.25;5285351;28;20110;-82
2022/03/05 00:10:42;;;;;;;8.90;4.45;;;;;;;2.01;90.48;101511.31;5286126;28;20023;-79
2022/03/05 00:13:12;;;;;;;9.38;4.93;;;;;;;1.83;93.02;101505.91;5286102;28;20141;-82
2022/03/05 00:15:43;;;;;;;10.38;5.50;;;;;;;1.77;92.77;101505.78;5268535;28;20485;-82
2022/03/05 00:18:14;;;;;;;9.23;4.82;;;;;;;1.76;92.29;101498.06;5286132;28;20027;-82
2022/03/05 00:20:46;;;;;;;8.80;4.78;;;;;;;2.01;87.90;101503.59;5286190;28;20027;-81
2022/03/05 00:23:16;;;;;;;8.73;4.70;;;;;;;2.00;85.24;101507.00;5266557;28;20028;-79
2022/03/05 00:25:47;;;;;;;8.68;4.88;;;;;;;2.08;85.26;101502.81;5285844;28;20036;-83
2022/03/05 00:28:18;;;;;;;10.40;5.00;;;;;;;1.81;87.38;101505.03;5285545;28;20043;-80
2022/03/05 00:30:48;;;;;;;10.38;4.85;;;;;;;1.57;91.32;101514.94;5286279;28;20020;-79
2022/03/05 00:33:20;;;;;;;9.52;4.97;;;;;;;1.61;90.35;101509.00;5285949;28;20023;-80
2022/03/05 00:35:50;;;;;;;10.68;4.95;;;;;;;1.65;90.08;101515.06;5283088;28;20019;-79
2022/03/05 00:38:21;;;;;;;9.60;5.03;;;;;;;1.70;90.06;101516.00;5284870;28;20314;-80
2022/03/05 00:40:51;;;;;;;9.45;4.75;;;;;;;1.61;89.69;101516.72;5285272;28;20056;-80
2022/03/05 00:43:21;;;;;;;8.95;4.70;;;;;;;1.48;91.85;101519.09;5285755;28;20028;-80
2022/03/05 00:45:52;;;;;;;13.40;5.70;;;;;;;1.36;94.17;101513.72;5285487;28;20019;-81
2022/03/05 00:48:22;;;;;;;8.20;4.72;;;;;;;1.22;94.21;101525.53;5267346;28;20031;-82
2022/03/05 00:50:52;;;;;;;12.40;5.03;;;;;;;0.97;97.88;101526.81;5285554;28;20365;-80
2022/03/05 00:53:23;;;;;;;13.15;6.35;;;;;;;1.06;97.85;101529.53;5285722;28;20489;-80
2022/03/05 00:55:53;;;;;;;11.32;6.30;;;;;;;1.15;97.19;101527.13;5285794;28;20058;-80
2022/03/05 00:58:23;;;;;;;12.05;6.35;;;;;;;1.16;96.56;101525.41;5285378;28;20591;-81
2022/03/05 01:00:53;;;;;;;12.02;6.28;;;;;;;1.17;97.48;101524.56;5285521;28;20028;-79
2022/03/05 01:03:24;;;;;;;11.40;6.47;;;;;;;1.19;96.87;101533.16;5265791;28;20031;-80
2022/03/05 01:05:54;;;;;;;11.18;6.40;;;;;;;1.15;94.71;101527.13;5281668;28;20030;-81
2022/03/05 01:08:24;;;;;;;12.93;6.03;;;;;;;0.89;97.84;101536.06;5266391;28;20035;-80
2022/03/05 01:10:55;;;;;;;10.57;6.22;;;;;;;0.73;100.00;101528.91;5287690;28;20031;-82
2022/03/05 01:13:25;;;;;;;11.52;6.32;;;;;;;0.84;100.00;101527.41;5270610;28;20504;-82
2022/03/05 01:15:55;;;;;;;13.68;6.82;;;;;;;0.87;99.77;101527.47;5269829;28;20112;-80
2022/03/05 01:18:26;;;;;;;13.88;6.60;;;;;;;0.73;99.53;101522.91;5283812;28;20137;-82
2022/03/05 01:20:56;;;;;;;13.10;6.50;;;;;;;0.69;99.47;101518.56;5281630;28;20032;-80
2022/03/05 01:23:26;;;;;;;12.43;6.38;;;;;;;0.64;99.82;101513.31;5286365;28;20028;-80
2022/03/05 01:25:56;;;;;;;12.98;6.65;;;;;;;0.57;100.00;101516.59;5288028;28;20416;-79
2022/03/05 01:28:27;;;;;;;13.02;6.95;;;;;;;0.56;100.00;101512.28;5287328;28;20114;-79
2022/03/05 01:30:57;;;;;;;12.70;6.88;;;;;;;0.56;100.00;101512.28;5287948;28;20027;-82
2022/03/05 01:33:28;;;;;;;11.52;6.68;;;;;;;0.53;99.49;101504.53;5269810;28;20182;-83
2022/03/05 01:35:58;;;;;;;10.25;6.25;;;;;;;0.55;99.82;101505.41;5287641;28;20116;-79
2022/03/05 01:38:28;;;;;;;12.57;6.45;;;;;;;0.66;98.51;101505.63;5287479;28;20043;-79
2022/03/05 01:40:58;;;;;;;11.43;6.10;;;;;;;0.46;98.66;101507.81;5287660;28;20032;-79
2022/03/05 01:43:29;;;;;;;13.68;7.03;;;;;;;0.40;99.43;101492.25;5287886;28;20031;-79
2022/03/05 01:45:59;;;;;;;12.63;6.90;;;;;;;0.50;98.01;101512.19;5288032;28;20473;-80
2022/03/05 01:48:29;;;;;;;11.77;6.03;;;;;;;0.17;98.79;101508.94;5288209;28;20111;-81
2022/03/05 01:51:00;;;;;;;11.55;6.70;;;;;;;0.16;100.00;101499.47;5287633;28;20032;-83
2022/03/05 01:53:30;;;;;;;13.20;7.55;;;;;;;0.24;98.55;101490.22;5288024;28;20024;-83
2022/03/05 01:56:00;;;;;;;14.63;7.55;;;;;;;0.40;94.30;101491.41;5269234;28;20104;-83
2022/03/05 01:58:31;;;;;;;13.98;7.22;;;;;;;0.41;94.08;101494.00;5269463;28;20212;-81
2022/03/05 02:01:01;;;;;;;13.70;7.25;;;;;;;0.39;95.75;101490.53;5288320;28;20115;-80
2022/03/05 02:03:31;;;;;;;13.35;6.95;;;;;;;0.35;96.04;101499.03;5270189;28;20305;-81
2022/03/05 02:06:01;;;;;;;12.25;7.28;;;;;;;0.34;96.08;101491.25;5286880;28;20501;-79
2022/03/05 02:08:32;;;;;;;14.43;7.35;;;;;;;0.17;95.98;101496.06;5288372;28;20043;-80
2022/03/05 02:11:02;;;;;;;12.45;7.15;;;;;;;0.20;96.90;101491.00;5287406;28;20291;-81
2022/03/05 02:13:33;;;;;;;15.20;7.45;;;;;;;0.19;96.83;101489.25;5269639;28;20028;-80
2022/03/05 02:16:03;;;;;;;15.57;8.65;;;;;;;0.22;95.66;101486.75;5269108;28;20493;-80
2022/03/05 02:18:34;;;;;;;18.05;10.15;;;;;;;0.16;95.50;101491.78;5287514;28;20032;-80
2022/03/05 02:21:05;;;;;;;22.58;12.23;;;;;;;0.18;94.74;101497.81;5267558;28;20023;-81
2022/03/05 02:23:35;;;;;;;31.95;15.38;;;;;;;0.15;95.33;101495.19;5264695;28;20072;-82
2022/03/05 02:26:06;;;;;;;21.92;11.73;;;;;;;0.23;94.79;101498.75;5287209;28;20023;-81
2022/03/05 02:28:37;;;;;;;20.15;9.77;;;;;;;0.12;94.60;101499.38;5287546;28;20054;-81
2022/03/05 02:31:07;;;;;;;37.10;17.95;;;;;;;0.12;95.67;101496.81;5268703;28;20043;-81
2022/03/05 02:33:39;;;;;;;25.25;13.73;;;;;;;0.06;95.38;101494.97;5283842;28;20026;-81
2022/03/05 02:36:09;;;;;;;25.52;11.75;;;;;;;0.03;96.24;101494.91;5287590;28;20032;-81
2022/03/05 02:38:40;;;;;;;35.88;16.58;;;;;;;0.02;96.28;101495.75;5288085;28;20023;-80
2022/03/05 02:41:10;;;;;;;36.97;16.58;;;;;;;-0.01;96.25;101493.13;5288617;28;20050;-79
2022/03/05 02:43:40;;;;;;;22.55;11.40;;;;;;;-0.03;96.20;101495.63;5269951;28;20351;-81
2022/03/05 02:46:10;;;;;;;14.32;7.75;;;;;;;-0.05;96.90;101500.72;5288882;28;20050;-82
2022/03/05 02:48:41;;;;;;;15.80;7.82;;;;;;;-0.11;96.87;101499.72;5287959;28;20323;-80
2022/03/05 02:51:11;;;;;;;15.13;8.07;;;;;;;-0.07;96.78;101492.13;5288246;28;20370;-79
2022/03/05 02:53:41;;;;;;;13.70;7.80;;;;;;;-0.19;99.99;101491.84;5287366;28;20049;-81
2022/03/05 02:56:12;;;;;;;12.93;7.30;;;;;;;-0.03;98.79;101498.19;5269413;28;20030;-79
2022/03/05 02:58:42;;;;;;;15.70;7.93;;;;;;;-0.10;98.19;101504.03;5288279;28;20247;-78
2022/03/05 03:01:12;;;;;;;13.20;7.78;;;;;;;-0.14;99.04;101499.66;5269270;28;20071;-80
2022/03/05 03:03:43;;;;;;;13.68;7.70;;;;;;;-0.19;98.83;101499.56;5287017;28;20087;-80
2022/03/05 03:06:13;;;;;;;15.70;8.07;;;;;;;-0.23;99.14;101499.47;5285841;28;20095;-79
2022/03/05 03:08:43;;;;;;;16.83;8.20;;;;;;;-0.30;100.00;101502.72;5286091;28;20030;-79
2022/03/05 03:11:14;;;;;;;17.67;8.15;;;;;;;-0.33;100.00;101492.38;5267128;28;20622;-79
2022/03/05 03:13:44;;;;;;;15.63;7.88;;;;;;;-0.38;100.00;101496.56;5268380;28;20058;-79
2022/03/05 03:16:15;;;;;;;13.65;7.55;;;;;;;-0.39;100.00;101502.53;5267936;28;20425;-79
2022/03/05 03:18:45;;;;;;;14.25;7.82;;;;;;;-0.38;100.00;101499.13;5286067;28;20024;-79
2022/03/05 03:21:16;;;;;;;13.77;8.05;;;;;;;-0.37;100.00;101498.28;5267864;28;20024;-81
2022/03/05 03:23:46;;;;;;;17.23;8.40;;;;;;;-0.44;100.00;101488.69;5286289;28;20489;-79
2022/03/05 03:26:16;;;;;;;15.48;7.93;;;;;;;-0.40;100.00;101493.09;5267890;28;20247;-79
2022/03/05 03:28:47;;;;;;;15.35;7.95;;;;;;;-0.47;100.00;101497.22;5286600;28;20023;-81
2022/03/05 03:31:17;;;;;;;17.83;8.02;;;;;;;-0.50;100.00;101498.84;5286714;28;20027;-81
2022/03/05 03:33:47;;;;;;;15.88;8.43;;;;;;;-0.50;100.00;101498.84;5268392;28;20110;-81
2022/03/05 03:36:18;;;;;;;13.25;7.53;;;;;;;-0.59;100.00;101501.19;5285443;28;20031;-80
2022/03/05 03:38:48;;;;;;;15.85;8.27;;;;;;;-0.60;100.00;101502.00;5286912;28;20047;-81
2022/03/05 03:41:18;;;;;;;17.25;8.43;;;;;;;-0.64;100.00;101495.06;5286021;28;20109;-80
2022/03/05 03:43:48;;;;;;;14.38;7.93;;;;;;;-0.65;100.00;101499.34;5286090;28;20028;-81
2022/03/05 03:46:19;;;;;;;15.80;8.88;;;;;;;-0.69;100.00;101494.09;5286651;28;20035;-80
2022/03/05 03:48:49;;;;;;;22.58;8.63;;;;;;;-0.71;100.00;101494.06;5268274;28;20040;-80
2022/03/05 03:51:19;;;;;;;14.23;8.00;;;;;;;-0.63;100.00;101507.94;5286745;28;20102;-81
2022/03/05 03:53:50;;;;;;;13.52;7.65;;;;;;;-0.66;100.00;101496.75;5267673;28;20118;-80
2022/03/05 03:56:20;;;;;;;18.70;8.55;;;;;;;-0.67;100.00;101495.88;5286254;28;20029;-80
2022/03/05 03:58:50;;;;;;;14.48;8.43;;;;;;;-0.68;100.00;101498.41;5286347;28;20028;-81
2022/03/05 04:01:21;;;;;;;15.13;8.02;;;;;;;-0.65;100.00;101503.59;5286250;28;20481;-80
2022/03/05 04:03:51;;;;;;;15.55;8.23;;;;;;;-0.80;100.00;101508.34;5266199;28;20496;-80
2022/03/05 04:06:21;;;;;;;14.50;7.38;;;;;;;-0.74;100.00;101511.94;5285716;28;20426;-80
2022/03/05 04:08:52;;;;;;;16.20;7.95;;;;;;;-0.77;100.00;101514.44;5285865;28;20027;-80
2022/03/05 04:11:22;;;;;;;14.35;7.82;;;;;;;-0.74;100.00;101521.34;5267626;28;20032;-80
2022/03/05 04:13:52;;;;;;;15.93;7.90;;;;;;;-0.79;100.00;101515.22;5285863;28;20045;-81
2022/03/05 04:16:22;;;;;;;15.38;7.85;;;;;;;-0.86;100.00;101515.91;5267356;28;20028;-80
2022/03/05 04:18:53;;;;;;;15.73;8.65;;;;;;;-0.87;100.00;101519.31;5285521;28;20023;-80
2022/03/05 04:21:23;;;;;;;15.23;7.93;;;;;;;-0.92;100.00;101528.59;5266873;28;20445;-80
2022/03/05 04:23:53;;;;;;;15.80;7.85;;;;;;;-0.95;100.00;101529.38;5266620;28;20023;-80
2022/03/05 04:26:23;;;;;;;14.25;7.63;;;;;;;-0.96;100.00;101530.22;5267455;28;20066;-80
2022/03/05 04:28:54;;;;;;;14.75;7.55;;;;;;;-0.99;100.00;101527.56;5267173;28;20039;-80
2022/03/05 04:31:24;;;;;;;14.98;7.60;;;;;;;-1.04;100.00;101530.84;5285218;28;20028;-81
2022/03/05 04:33:54;;;;;;;14.65;7.45;;;;;;;-0.98;100.00;101534.44;5265632;28;20037;-80
2022/03/05 04:36:25;;;;;;;14.65;7.38;;;;;;;-0.99;100.00;101531.81;5285518;28;20028;-81
2022/03/05 04:38:55;;;;;;;13.82;7.60;;;;;;;-1.09;100.00;101535.00;5286604;28;20094;-81
2022/03/05 04:41:25;;;;;;;13.55;7.90;;;;;;;-1.10;100.00;101533.25;5285117;28;20035;-81
2022/03/05 04:43:55;;;;;;;14.27;7.55;;;;;;;-1.03;100.00;101540.25;5285064;28;20384;-80
2022/03/05 04:46:26;;;;;;;14.43;7.70;;;;;;;-1.02;100.00;101547.13;5267417;28;20174;-82
2022/03/05 04:48:57;;;;;;;14.95;7.88;;;;;;;-1.06;100.00;101542.75;5286753;28;20031;-80
2022/03/05 04:51:27;;;;;;;13.50;7.45;;;;;;;-1.16;100.00;101539.09;5286136;28;20114;-81
2022/03/05 04:53:58;;;;;;;14.60;8.00;;;;;;;-1.19;100.00;101543.25;5286249;28;20031;-81
2022/03/05 04:56:28;;;;;;;13.98;7.15;;;;;;;-1.17;100.00;101547.59;5285525;28;20023;-79
2022/03/05 04:58:58;;;;;;;15.02;7.43;;;;;;;-1.18;100.00;101540.75;5285415;28;20024;-82
2022/03/05 05:01:29;;;;;;;16.70;7.97;;;;;;;-1.15;100.00;101550.19;5285557;28;20023;-81
2022/03/05 05:03:59;;;;;;;12.15;7.22;;;;;;;-1.16;100.00;101548.47;5286162;28;20381;-80
2022/03/05 05:06:30;;;;;;;13.73;7.05;;;;;;;-1.25;100.00;101543.09;5265781;28;20023;-81
2022/03/05 05:09:01;;;;;;;14.18;7.20;;;;;;;-1.30;100.00;101537.84;5285643;28;20027;-82
2022/03/05 05:11:31;;;;;;;13.27;7.25;;;;;;;-1.48;100.00;101539.91;5285137;28;20027;-79
2022/03/05 05:14:01;;;;;;;13.32;6.30;;;;;;;-1.46;100.00;101539.94;5285796;28;20369;-79
2022/03/05 05:16:31;;;;;;;14.50;7.38;;;;;;;-1.48;100.00;101545.03;5267255;28;20063;-80
2022/03/05 05:21:52;;;;;;;14.32;7.45;;;;;;;-1.56;100.00;101538.81;5285319;28;20032;-79
2022/03/05 05:24:27;;;;;;;13.60;6.70;;;;;;;-1.45;100.00;101542.53;5286072;28;20038;-83
2022/03/05 05:26:58;;;;;;;;;;;;;;;-1.46;100.00;101543.38;5265941;28;20377;-80
2022/03/05 05:29:28;;;;;;;14.40;7.15;;;;;;;-1.46;100.00;101542.47;5267289;28;19912;-80
2022/03/05 05:31:59;;;;;;;10.98;6.32;;;;;;;-1.43;100.00;101542.59;5286217;28;20027;-83
2022/03/05 05:34:29;;;;;;;11.88;6.70;;;;;;;-1.40;100.00;101552.94;5286277;28;20281;-82
2022/03/05 05:36:59;;;;;;;15.13;7.32;;;;;;;-1.34;100.00;101551.41;5267515;28;20024;-81
2022/03/05 05:39:29;;;;;;;12.85;6.93;;;;;;;-1.43;100.00;101552.84;5286537;28;20027;-81
2022/03/05 05:42:00;;;;;;;12.85;7.10;;;;;;;-1.39;100.00;101549.53;5268764;28;20405;-82
2022/03/05 05:44:30;;;;;;;14.05;6.63;;;;;;;-1.35;100.00;101541.09;5269766;28;20031;-81
2022/03/05 05:47:00;;;;;;;10.90;6.30;;;;;;;-1.40;100.00;101542.69;5268447;28;20073;-81
2022/03/05 05:49:31;;;;;;;12.98;5.53;;;;;;;-1.42;100.00;101549.47;5288090;28;20045;-80
2022/03/05 05:52:02;;;;;;;11.82;6.30;;;;;;;-1.40;100.00;101545.25;5288014;28;20027;-82
2022/03/05 05:54:33;;;;;;;9.40;5.32;;;;;;;-1.35;100.00;101539.41;5287801;28;20024;-82
2022/03/05 05:57:04;;;;;;;13.10;5.35;;;;;;;-1.32;100.00;101543.75;5292237;28;20056;-82
2022/03/05 05:59:34;;;;;;;14.00;5.65;;;;;;;-1.31;100.00;101542.91;5293300;28;20179;-82
2022/03/05 06:02:05;;;;;;;10.20;5.43;;;;;;;-1.36;100.00;101549.63;5293313;28;20028;-81
2022/03/05 06:04:35;;;;;;;9.73;5.22;;;;;;;-1.33;100.00;101542.88;5298307;28;20031;-81
2022/03/05 06:07:05;;;;;;;12.85;5.38;;;;;;;-1.22;100.00;101544.03;5281563;28;20035;-83
2022/03/05 06:09:36;;;;;;;11.68;4.68;;;;;;;-1.19;100.00;101543.25;5282922;28;20039;-80
2022/03/05 06:12:06;;;;;;;11.52;5.30;;;;;;;-1.11;100.00;101544.31;5301893;28;20035;-82
2022/03/05 06:14:37;;;;;;;8.10;4.40;;;;;;;-1.16;100.00;101551.03;5302371;28;20489;-79
2022/03/05 06:17:08;;;;;;;8.40;4.32;;;;;;;-1.07;100.00;101551.28;5301920;28;20023;-80
2022/03/05 06:19:38;;;;;;;8.98;4.78;;;;;;;-1.09;100.00;101553.78;5300375;28;20028;-82
2022/03/05 06:22:08;;;;;;;8.63;4.43;;;;;;;-0.90;100.00;101555.16;5300804;28;20062;-83
2022/03/05 06:24:38;;;;;;;10.65;4.68;;;;;;;-0.88;100.00;101556.06;5280905;28;20030;-81
2022/03/05 06:27:09;;;;;;;10.35;4.38;;;;;;;-0.85;100.00;101558.69;5282254;28;20024;-81
2022/03/05 06:29:39;;;;;;;8.13;4.32;;;;;;;-0.75;100.00;101558.09;5300591;28;20028;-81
2022/03/05 06:32:10;;;;;;;8.55;4.40;;;;;;;-0.76;100.00;101561.50;5301283;28;20062;-80
2022/03/05 06:34:40;;;;;;;8.70;5.22;;;;;;;-0.62;100.00;101562.69;5280278;28;20066;-79
2022/03/05 06:37:11;;;;;;;8.90;4.28;;;;;;;-0.56;100.00;101566.28;5274890;28;20019;-79
2022/03/05 06:39:41;;;;;;;8.00;4.60;;;;;;;-0.57;100.00;101564.53;5297736;28;20031;-79
2022/03/05 06:42:11;;;;;;;8.30;3.75;;;;;;;-0.57;100.00;101558.56;5294994;28;20473;-79
2022/03/05 06:44:42;;;;;;;8.82;4.68;;;;;;;-0.52;100.00;101562.09;5276564;28;20024;-79
2022/03/05 06:47:12;;;;;;;7.35;4.50;;;;;;;-0.50;100.00;101563.88;5279760;28;20095;-77
2022/03/05 06:49:43;;;;;;;7.55;4.10;;;;;;;-0.49;100.00;101567.31;5290023;28;20054;-77
2022/03/05 06:52:15;;;;;;;7.00;3.88;;;;;;;-0.48;100.00;101569.03;5308246;28;20026;-76
2022/03/05 06:54:45;;;;;;;6.85;3.63;;;;;;;-0.40;100.00;101573.53;5276201;28;20031;-81
2022/03/05 06:57:16;;;;;;;6.65;3.72;;;;;;;-0.45;100.00;101571.69;5288749;28;20035;-81
2022/03/05 06:59:46;;;;;;;8.15;3.65;;;;;;;-0.37;100.00;101575.31;5268893;28;20027;-80
2022/03/05 07:02:17;;;;;;;8.85;4.03;;;;;;;-0.29;100.00;101572.09;5287930;28;20035;-81
2022/03/05 07:04:47;;;;;;;11.15;4.28;;;;;;;-0.27;100.00;101580.69;5269625;28;20024;-77
2022/03/05 07:07:17;;;;;;;8.50;3.97;;;;;;;-0.19;100.00;101583.44;5268433;28;20105;-78
2022/03/05 07:09:48;;;;;;;8.27;3.97;;;;;;;-0.19;100.00;101586.03;5288477;28;20030;-79
2022/03/05 07:12:18;;;;;;;6.00;3.72;;;;;;;-0.18;100.00;101582.63;5287810;28;20407;-80
2022/03/05 07:14:51;;;;;;;8.55;3.88;;;;;;;-0.12;100.00;101590.44;5269688;28;20066;-81
2022/03/05 07:17:21;;;;;;;8.98;4.50;;;;;;;-0.05;100.00;101588.06;5269535;28;20042;-78
2022/03/05 07:19:54;;;;;;;10.77;4.20;;;;;;;0.06;100.00;101596.91;5288010;28;20019;-80
2022/03/05 07:22:24;;;;;;;10.02;4.22;;;;;;;0.12;100.00;101592.78;5286894;28;20024;-80
2022/03/05 07:24:54;;;;;;;11.50;4.57;;;;;;;0.26;100.00;101599.09;5269713;28;20027;-80
2022/03/05 07:27:25;;;;;;;8.23;3.80;;;;;;;0.37;100.00;101595.03;5287602;28;20412;-79
2022/03/05 07:29:55;;;;;;;9.20;3.60;;;;;;;0.35;100.00;101609.56;5287320;28;20115;-81
2022/03/05 07:32:25;;;;;;;9.70;4.15;;;;;;;0.64;100.00;101608.47;5276499;28;20023;-78
2022/03/05 07:34:55;;;;;;;8.30;3.67;;;;;;;2.67;100.00;101594.72;5282844;28;20027;-78
2022/03/05 07:37:26;;;;;;;6.13;3.25;;;;;;;3.62;90.87;101598.31;5283674;28;20024;-78
2022/03/05 07:39:56;;;;;;;6.47;2.67;;;;;;;5.59;82.16;101592.38;5275507;28;20019;-79
2022/03/05 07:42:26;;;;;;;4.63;2.33;;;;;;;5.66;79.22;101589.78;5271830;28;20053;-78
2022/03/05 07:44:57;;;;;;;5.50;2.80;;;;;;;6.56;78.27;101594.88;5290437;28;20026;-78
2022/03/05 07:47:27;;;;;;;6.25;2.28;;;;;;;7.57;74.25;101590.91;5271450;28;20042;-79
2022/03/05 07:49:58;;;;;;;5.70;2.45;;;;;;;6.71;72.94;101589.63;5267885;28;20120;-82
2022/03/05 07:52:28;;;;;;;6.40;2.50;;;;;;;7.02;72.51;101595.56;5271574;28;20479;-82
2022/03/05 07:54:58;;;;;;;4.23;2.07;;;;;;;9.17;66.18;101583.13;5270755;28;20024;-82
2022/03/05 07:57:29;;;;;;;5.03;1.90;;;;;;;9.00;67.47;101585.09;5271176;28;20273;-78
2022/03/05 07:59:59;;;;;;;4.95;2.15;;;;;;;11.61;60.90;101574.13;5290623;28;20035;-79
2022/03/05 08:02:29;;;;;;;3.47;2.00;;;;;;;10.86;59.98;101580.16;5271991;28;20107;-80
2022/03/05 08:04:59;;;;;;;3.63;1.70;;;;;;;10.10;62.02;101582.53;5273376;28;20392;-77
2022/03/05 08:07:31;;;;;;;3.47;1.58;;;;;;;11.86;57.75;101577.88;5289150;28;20337;-82
2022/03/05 08:10:02;;;;;;;3.70;1.65;;;;;;;10.40;59.69;101586.34;5271215;28;20024;-79
2022/03/05 08:12:32;;;;;;;3.08;1.80;;;;;;;10.41;61.44;101585.44;5271510;28;20091;-81
2022/03/05 08:15:04;;;;;;;4.57;2.00;;;;;;;9.72;61.73;101589.25;5289996;28;20043;-81
2022/03/05 08:17:35;;;;;;;3.85;1.38;;;;;;;11.45;59.07;101583.19;5270843;28;20272;-81
2022/03/05 08:20:06;;;;;;;3.95;1.50;;;;;;;9.77;60.52;101590.91;5270507;28;20393;-77
2022/03/05 08:22:36;;;;;;;4.50;1.60;;;;;;;9.07;63.63;101599.75;5271209;28;20026;-80
2022/03/05 08:25:07;;;;;;;3.33;1.40;;;;;;;9.82;64.11;101596.06;5271202;28;20386;-80
2022/03/05 08:27:38;;;;;;;4.25;1.50;;;;;;;9.41;64.60;101593.19;5271025;28;20024;-77
2022/03/05 08:30:09;;;;;;;4.28;1.75;;;;;;;10.17;61.16;101588.53;5270240;28;20020;-80
2022/03/05 08:32:40;;;;;;;3.25;1.50;;;;;;;9.53;62.19;101590.41;5270266;28;20024;-78
2022/03/05 08:35:11;;;;;;;3.13;1.30;;;;;;;9.49;63.61;101591.34;5268531;28;20024;-81
2022/03/05 08:37:43;;;;;;;4.97;1.65;;;;;;;10.21;61.67;101587.56;5270107;28;20039;-78
2022/03/05 08:40:14;;;;;;;6.38;2.28;;;;;;;9.41;62.46;101587.97;5287360;28;20354;-80
2022/03/05 08:42:48;;;;;;;10.00;3.35;;;;;;;10.27;62.55;101582.22;5269716;28;20024;-81
2022/03/05 08:45:18;;;;;;;9.73;3.53;;;;;;;10.25;61.81;101594.44;5287688;28;20020;-77
2022/03/05 08:47:48;;;;;;;7.10;2.90;;;;;;;9.49;62.51;101599.19;5286382;28;20110;-78
2022/03/05 08:50:19;;;;;;;4.82;2.30;;;;;;;10.05;62.88;101588.72;5264192;28;20088;-80
2022/03/05 08:52:49;;;;;;;6.50;2.40;;;;;;;9.81;63.13;101594.34;5267920;28;20070;-80
2022/03/05 08:55:20;;;;;;;5.80;1.95;;;;;;;10.48;61.58;101584.47;5268419;28;20027;-80
2022/03/05 08:57:50;;;;;;;3.90;2.00;;;;;;;9.84;63.36;101594.28;5286812;28;20023;-78
2022/03/05 09:00:20;;;;;;;6.57;2.47;;;;;;;9.58;64.38;101596.41;5269578;28;20020;-79
2022/03/05 09:02:51;;;;;;;5.25;2.22;;;;;;;9.83;64.03;101584.72;5287685;28;20028;-79
2022/03/05 09:05:21;;;;;;;5.05;2.20;;;;;;;9.57;63.54;101587.75;5288421;28;20385;-79
2022/03/05 09:07:52;;;;;;;6.55;2.70;;;;;;;9.36;65.50;101584.59;5268345;28;20036;-80
2022/03/05 09:10:22;;;;;;;7.70;3.08;;;;;;;8.87;65.99;101587.88;5287258;28;20165;-81
2022/03/05 09:12:52;;;;;;;5.80;2.80;;;;;;;9.03;64.85;101574.63;5268808;28;20495;-81
2022/03/05 09:15:23;;;;;;;6.82;2.67;;;;;;;8.69;67.32;101580.28;5286832;28;20382;-81
2022/03/05 09:17:53;;;;;;;5.63;2.67;;;;;;;8.18;67.15;101589.50;5282238;28;20023;-81
2022/03/05 09:20:23;;;;;;;6.35;2.70;;;;;;;7.50;71.01;101586.59;5286568;28;20071;-81
2022/03/05 09:22:54;;;;;;;5.55;3.00;;;;;;;6.89;74.13;101593.88;5269054;28;20034;-81
2022/03/05 09:25:25;;;;;;;5.30;3.08;;;;;;;6.32;76.13;101584.56;5268810;28;20035;-80
2022/03/05 09:27:55;;;;;;;10.68;3.83;;;;;;;6.40;76.53;101584.56;5286322;28;20441;-81
2022/03/05 09:30:25;;;;;;;10.48;3.70;;;;;;;6.52;76.46;101582.78;5268162;28;20019;-81
2022/03/05 09:32:56;;;;;;;8.32;4.20;;;;;;;6.36;76.14;101580.22;5290345;28;20039;-82
2022/03/05 09:35:26;;;;;;;9.23;4.15;;;;;;;6.35;75.14;101579.38;5272562;28;20027;-82
2022/03/05 09:37:56;;;;;;;11.82;4.32;;;;;;;5.82;77.09;101575.09;5289841;28;20033;-81
2022/03/05 09:40:27;;;;;;;8.80;4.80;;;;;;;5.98;78.67;101574.22;5272739;28;20042;-83
2022/03/05 09:43:00;;;;;;;10.48;5.15;;;;;;;6.10;76.95;101571.63;5274036;28;20027;-80
2022/03/05 09:45:30;;;;;;;9.02;4.28;;;;;;;6.11;76.91;101571.63;5271561;28;20036;-84
2022/03/05 09:48:00;;;;;;;8.35;4.57;;;;;;;5.82;76.88;101573.41;5290603;28;20024;-84
2022/03/05 09:50:34;;;;;;;11.63;4.82;;;;;;;5.85;77.73;101575.09;5267801;28;20020;-80
2022/03/05 09:53:04;;;;;;;8.57;4.78;;;;;;;6.11;77.05;101573.34;5290666;28;20031;-81
2022/03/05 09:55:36;;;;;;;8.40;3.95;;;;;;;6.15;75.80;101578.56;5272239;28;20138;-80
2022/03/05 09:58:06;;;;;;;8.93;4.35;;;;;;;5.90;77.43;101576.84;5289732;28;20103;-82
2022/03/05 10:00:39;;;;;;;13.60;4.55;;;;;;;5.41;78.08;101576.81;5271904;28;20027;-81
2022/03/05 10:03:13;;;;;;;6.40;4.15;;;;;;;5.71;77.51;101566.47;5271590;28;20027;-81
2022/03/05 10:05:43;;;;;;;8.50;4.10;;;;;;;5.69;76.71;101586.31;5267476;28;20111;-82
2022/03/05 10:08:19;;;;;;;11.60;4.20;;;;;;;5.74;77.95;101575.06;5289655;28;20130;-82
2022/03/05 10:10:52;;;;;;;13.90;4.50;;;;;;;5.75;78.31;101570.78;5270690;28;20030;-81
2022/03/05 10:13:28;;;;;;;7.70;3.97;;;;;;;5.76;77.31;101569.91;5271223;28;20020;-81
2022/03/05 10:16:05;;;;;;;8.13;3.72;;;;;;;6.02;75.48;101568.16;5271054;28;20027;-83
2022/03/05 10:18:39;;;;;;;10.38;4.43;;;;;;;6.05;77.29;101568.19;5289251;28;20492;-80
2022/03/05 10:21:09;;;;;;;9.18;4.35;;;;;;;6.19;78.19;101562.09;5269794;28;20024;-81
2022/03/05 10:23:47;;;;;;;9.77;4.90;;;;;;;6.00;76.09;101562.13;5270405;28;20027;-82
2022/03/05 10:26:21;;;;;;;9.68;4.28;;;;;;;6.12;75.92;101562.97;5288320;28;20570;-82
2022/03/05 10:28:52;;;;;;;11.02;4.03;;;;;;;6.22;75.68;101561.25;5270510;28;20031;-81
2022/03/05 10:31:22;;;;;;;7.45;4.05;;;;;;;6.40;76.25;101549.06;5270019;28;20073;-81
2022/03/05 10:33:56;;;;;;;9.80;4.38;;;;;;;6.34;76.40;101562.06;5271338;28;20112;-81
2022/03/05 10:36:26;;;;;;;9.40;4.20;;;;;;;5.98;75.19;101556.06;5266220;28;20073;-81
2022/03/05 10:38:59;;;;;;;8.13;3.83;;;;;;;5.59;75.68;101550.88;5270934;28;20481;-82
2022/03/05 10:41:34;;;;;;;6.55;3.63;;;;;;;5.83;76.65;101553.50;5287918;28;20496;-82
2022/03/05 10:44:10;;;;;;;8.98;3.50;;;;;;;5.87;76.51;101560.41;5270379;28;20027;-81
2022/03/05 10:46:58;;;;;;;8.52;4.20;;;;;;;6.15;76.14;101554.31;5288856;28;20088;-81
2022/03/05 10:49:38;;;;;;;6.93;3.65;;;;;;;6.39;75.43;101551.69;5270252;28;20027;-81
2022/03/05 10:52:09;;;;;;;6.97;3.88;;;;;;;5.84;75.78;101553.50;5266394;28;20015;-78
2022/03/05 10:54:44;;;;;;;7.00;3.75;;;;;;;6.10;75.18;101545.69;5289664;28;20031;-80
2022/03/05 10:57:23;;;;;;;8.35;3.83;;;;;;;6.22;74.74;101540.47;5290398;28;20058;-79
2022/03/05 10:59:55;;;;;;;7.97;4.20;;;;;;;6.14;75.37;101542.22;5266329;28;20027;-79
2022/03/05 11:02:25;;;;;;;9.57;4.03;;;;;;;6.47;75.72;101543.00;5271215;28;20088;-82
2022/03/05 11:04:57;;;;;;;8.95;4.50;;;;;;;6.43;72.55;101543.00;5287396;27;20035;-79
2022/03/05 11:07:27;;;;;;;7.50;4.07;;;;;;;6.71;75.92;101531.63;5276352;27;20050;-80
2022/03/05 11:09:58;;;;;;;7.95;4.30;;;;;;;6.93;73.12;101538.44;5288346;28;20024;-81
2022/03/05 11:12:30;;;;;;;7.68;4.07;;;;;;;6.30;69.56;101546.50;5287312;28;20027;-80
2022/03/05 11:15:00;;;;;;;6.82;3.65;;;;;;;6.46;71.56;101541.22;5288820;28;20031;-80
2022/03/05 11:17:31;;;;;;;7.90;4.15;;;;;;;7.02;73.68;101538.38;5269847;28;20413;-79
2022/03/05 11:20:03;;;;;;;7.90;3.60;;;;;;;7.13;71.22;101531.38;5270820;28;20027;-81
2022/03/05 11:22:37;;;;;;;7.85;3.50;;;;;;;7.26;71.52;101528.69;5270249;28;20377;-80
2022/03/05 11:25:14;;;;;;;7.97;3.60;;;;;;;7.18;72.95;101529.63;5269712;28;20115;-83
2022/03/05 11:28:00;;;;;;;5.60;3.28;;;;;;;7.26;69.86;101531.28;5274900;22;20047;-79
2022/03/05 11:30:42;;;;;;;5.13;3.63;;;;;;;7.14;71.52;101531.38;5232517;28;20064;-79
2022/03/05 11:33:19;;;;;;;6.68;3.97;;;;;;;7.14;71.20;101538.31;5232671;28;20532;-79
2022/03/05 11:35:49;;;;;;;6.20;3.30;;;;;;;6.46;69.93;101536.03;5237631;28;20024;-79
2022/03/05 11:38:37;;;;;;;6.82;3.60;;;;;;;6.12;66.67;101531.81;5234525;28;20078;-79
2022/03/05 11:41:19;;;;;;;6.07;3.55;;;;;;;5.92;70.04;101535.34;5232873;28;20039;-78